createdAt,value
2018-06-27T00:01:25.024Z,79.66
2018-06-27T00:03:52.882Z,79.99
2018-06-27T00:06:20.725Z,79.84
2018-06-27T00:08:48.539Z,81.00
2018-06-27T00:11:16.402Z,81.01
2018-06-27T00:13:44.262Z,81.66
2018-06-27T00:16:12.164Z,79.40
2018-06-27T00:18:40.103Z,80.42
2018-06-27T00:21:08.003Z,80.40
2018-06-27T00:23:35.895Z,80.48
2018-06-27T00:26:03.850Z,81.28
2018-06-27T00:28:31.725Z,81.88
2018-06-27T00:30:59.613Z,83.20
2018-06-27T00:33:27.498Z,84.55
2018-06-27T00:35:55.425Z,85.17
2018-06-27T00:38:23.317Z,85.84
2018-06-27T00:40:51.259Z,85.08
2018-06-27T00:43:19.150Z,85.35
2018-06-27T00:45:47.062Z,84.68
2018-06-27T00:48:14.923Z,84.70
2018-06-27T00:50:42.772Z,84.90
2018-06-27T00:53:10.682Z,84.73
2018-06-27T00:55:38.598Z,84.86
2018-06-27T00:58:06.709Z,85.53
2018-06-27T01:00:34.777Z,84.62
2018-06-27T01:03:02.719Z,85.03
2018-06-27T01:05:30.633Z,85.09
2018-06-27T01:07:58.522Z,85.54
2018-06-27T01:10:26.346Z,86.31
2018-06-27T01:12:54.234Z,86.04
2018-06-27T01:15:22.121Z,86.94
2018-06-27T01:17:56.424Z,87.49
2018-06-27T01:20:24.563Z,86.63
2018-06-27T01:22:52.424Z,86.85
2018-06-27T01:25:20.871Z,86.40
2018-06-27T01:27:48.998Z,87.75
2018-06-27T01:30:17.058Z,87.89
2018-06-27T01:32:44.891Z,87.94
2018-06-27T01:35:13.213Z,87.03
2018-06-27T01:37:41.138Z,88.04
2018-06-27T01:40:09.004Z,87.56
2018-06-27T01:42:36.927Z,87.50
2018-06-27T01:45:04.867Z,87.18
2018-06-27T01:47:32.762Z,87.26
2018-06-27T01:50:00.693Z,86.87
2018-06-27T01:52:28.610Z,86.40
2018-06-27T01:54:56.469Z,85.86
2018-06-27T01:57:24.336Z,85.92
2018-06-27T01:59:52.204Z,85.89
2018-06-27T02:02:20.125Z,85.33
2018-06-27T02:04:48.063Z,84.78
2018-06-27T02:07:15.946Z,85.36
2018-06-27T02:09:43.875Z,85.39
2018-06-27T02:12:11.695Z,85.35
2018-06-27T02:14:39.600Z,84.91
2018-06-27T02:17:07.495Z,85.43
2018-06-27T02:19:35.403Z,85.29
2018-06-27T02:22:03.326Z,85.56
2018-06-27T02:24:31.246Z,84.89
2018-06-27T02:26:59.157Z,84.73
2018-06-27T02:29:27.050Z,85.51
2018-06-27T02:31:55.012Z,86.82
2018-06-27T02:34:22.895Z,86.65
2018-06-27T02:36:50.743Z,87.21
2018-06-27T02:39:18.614Z,86.85
2018-06-27T02:41:46.517Z,86.58
2018-06-27T02:44:14.428Z,86.12
2018-06-27T02:46:42.340Z,86.15
2018-06-27T02:49:10.214Z,86.46
2018-06-27T02:51:38.105Z,86.06
2018-06-27T02:54:06.024Z,86.23
2018-06-27T02:56:33.934Z,86.15
2018-06-27T02:59:01.823Z,86.53
2018-06-27T03:01:29.720Z,86.21
2018-06-27T03:03:57.636Z,86.74
2018-06-27T03:06:25.545Z,86.65
2018-06-27T03:08:53.461Z,86.66
2018-06-27T03:11:21.357Z,86.28
2018-06-27T03:13:49.259Z,86.44
2018-06-27T03:16:17.178Z,86.96
2018-06-27T03:18:52.184Z,86.57
2018-06-27T03:21:20.472Z,86.42
2018-06-27T03:23:48.425Z,86.44
2018-06-27T03:26:16.299Z,86.40
2018-06-27T03:28:44.205Z,86.42
2018-06-27T03:31:12.089Z,86.58
2018-06-27T03:33:39.977Z,87.60
2018-06-27T03:36:07.827Z,87.59
2018-06-27T03:38:35.835Z,86.99
2018-06-27T03:41:03.781Z,87.15
2018-06-27T03:43:31.635Z,87.48
2018-06-27T03:45:59.579Z,87.33
2018-06-27T03:48:27.467Z,86.73
2018-06-27T03:50:55.387Z,87.07
2018-06-27T03:53:23.278Z,87.53
2018-06-27T03:55:51.207Z,87.27
2018-06-27T03:58:19.138Z,87.27
2018-06-27T04:00:46.993Z,87.09
2018-06-27T04:03:14.827Z,86.24
2018-06-27T04:05:42.679Z,86.03
2018-06-27T04:08:10.544Z,86.11
2018-06-27T04:10:38.422Z,85.82
2018-06-27T04:13:06.481Z,85.80
2018-06-27T04:15:36.695Z,85.29
2018-06-27T04:18:04.863Z,85.81
2018-06-27T04:20:32.708Z,84.70
2018-06-27T04:23:00.673Z,84.77
2018-06-27T04:25:28.611Z,83.58
2018-06-27T04:27:56.497Z,83.58
2018-06-27T04:30:24.360Z,84.70
2018-06-27T04:32:52.232Z,84.72
2018-06-27T04:35:20.178Z,84.02
2018-06-27T04:37:48.044Z,83.93
2018-06-27T04:40:15.980Z,83.24
2018-06-27T04:42:43.866Z,83.53
2018-06-27T04:45:11.774Z,83.38
2018-06-27T04:47:39.703Z,84.11
2018-06-27T04:50:07.635Z,84.66
2018-06-27T04:52:35.558Z,84.25
2018-06-27T04:55:03.507Z,85.87
2018-06-27T04:57:31.342Z,85.18
2018-06-27T04:59:59.415Z,83.68
2018-06-27T05:02:27.278Z,83.50
2018-06-27T05:04:55.143Z,83.57
2018-06-27T05:07:23.028Z,83.50
2018-06-27T05:09:50.923Z,83.15
2018-06-27T05:12:18.819Z,80.85
2018-06-27T05:14:46.713Z,79.92
2018-06-27T05:17:14.564Z,80.47
2018-06-27T05:19:43.798Z,81.40
2018-06-27T05:22:12.349Z,82.05
2018-06-27T05:24:40.227Z,81.56
2018-06-27T05:27:08.107Z,82.20
2018-06-27T05:29:35.996Z,83.90
2018-06-27T05:32:03.980Z,83.29
2018-06-27T05:34:31.982Z,81.79
2018-06-27T05:36:59.820Z,81.01
2018-06-27T05:39:27.709Z,81.39
2018-06-27T05:41:55.583Z,81.63
2018-06-27T05:44:23.514Z,82.91
2018-06-27T05:46:51.377Z,83.84
2018-06-27T05:49:19.231Z,84.24
2018-06-27T05:51:47.094Z,83.64
2018-06-27T05:54:14.942Z,83.34
2018-06-27T05:56:42.819Z,83.40
2018-06-27T05:59:10.662Z,82.83
2018-06-27T06:01:38.531Z,81.37
2018-06-27T06:04:06.398Z,80.74
2018-06-27T06:06:34.336Z,80.75
2018-06-27T06:09:02.315Z,81.92
2018-06-27T06:11:30.210Z,80.58
2018-06-27T06:13:58.122Z,81.23
2018-06-27T06:16:25.997Z,79.67
2018-06-27T06:18:53.928Z,78.93
2018-06-27T06:21:21.783Z,77.25
2018-06-27T06:23:49.684Z,76.09
2018-06-27T06:26:17.561Z,73.43
2018-06-27T06:28:45.427Z,72.03
2018-06-27T06:31:13.288Z,74.73
2018-06-27T06:33:41.121Z,76.23
2018-06-27T06:36:08.965Z,76.42
2018-06-27T06:38:36.834Z,77.34
2018-06-27T06:41:05.185Z,76.80
2018-06-27T06:43:33.055Z,75.64
2018-06-27T06:46:00.919Z,77.38
2018-06-27T06:48:29.814Z,74.86
2018-06-27T06:50:57.746Z,73.29
2018-06-27T06:53:25.635Z,70.77
2018-06-27T06:55:53.611Z,67.92
2018-06-27T06:58:21.492Z,64.93
2018-06-27T07:00:49.367Z,65.89
2018-06-27T07:03:17.268Z,65.04
2018-06-27T07:05:45.204Z,66.33
2018-06-27T07:08:13.034Z,65.29
2018-06-27T07:10:40.904Z,66.15
2018-06-27T07:13:08.800Z,65.88
2018-06-27T07:15:36.688Z,67.17
2018-06-27T07:18:04.969Z,66.27
2018-06-27T07:20:33.194Z,66.37
2018-06-27T07:23:01.047Z,67.75
2018-06-27T07:25:28.935Z,71.11
2018-06-27T07:27:56.864Z,69.50
2018-06-27T07:30:24.745Z,68.86
2018-06-27T07:32:53.061Z,71.14
2018-06-27T07:35:20.913Z,70.99
2018-06-27T07:37:48.853Z,72.70
2018-06-27T07:40:16.758Z,72.56
2018-06-27T07:42:44.681Z,75.00
2018-06-27T07:45:12.628Z,74.69
2018-06-27T07:47:40.475Z,74.78
2018-06-27T07:50:08.428Z,74.78
2018-06-27T07:52:36.304Z,75.33
2018-06-27T07:55:04.364Z,75.07
2018-06-27T07:57:32.246Z,74.08
2018-06-27T08:00:00.141Z,73.70
2018-06-27T08:02:28.060Z,72.23
2018-06-27T08:04:55.960Z,71.15
2018-06-27T08:07:23.887Z,68.62
2018-06-27T08:09:51.784Z,68.26
2018-06-27T08:12:19.732Z,65.29
2018-06-27T08:14:47.541Z,65.13
2018-06-27T08:17:15.730Z,62.17
2018-06-27T08:19:43.655Z,63.37
2018-06-27T08:22:11.548Z,62.60
2018-06-27T08:24:39.415Z,62.98
2018-06-27T08:27:07.364Z,60.89
2018-06-27T08:29:35.402Z,62.93
2018-06-27T08:32:03.462Z,63.30
2018-06-27T08:34:31.372Z,65.87
2018-06-27T08:39:32.648Z,72.70
2018-06-27T08:42:00.518Z,72.70
2018-06-27T08:44:28.572Z,75.24
2018-06-27T08:46:56.361Z,76.43
2018-06-27T08:49:24.274Z,76.99
2018-06-27T08:51:52.131Z,78.43
2018-06-27T08:54:20.011Z,79.24
2018-06-27T08:56:47.989Z,79.35
2018-06-27T08:59:15.880Z,79.12
2018-06-27T09:01:43.774Z,80.00
2018-06-27T09:04:11.744Z,80.65
2018-06-27T09:06:39.652Z,80.65
2018-06-27T09:09:09.873Z,80.03
2018-06-27T09:18:27.843Z,79.91
2018-06-27T09:20:55.794Z,81.07
2018-06-27T09:23:23.700Z,81.06
2018-06-27T09:25:51.559Z,79.93
2018-06-27T09:28:19.472Z,78.27
2018-06-27T09:30:47.419Z,77.73
2018-06-27T09:33:15.265Z,77.08
2018-06-27T09:35:43.173Z,76.95
2018-06-27T09:38:11.039Z,77.30
2018-06-27T09:40:38.904Z,75.21
2018-06-27T09:43:06.850Z,72.78
2018-06-27T09:45:34.748Z,73.96
2018-06-27T09:48:02.665Z,73.43
2018-06-27T09:50:30.629Z,73.27
2018-06-27T09:52:58.480Z,71.57
2018-06-27T09:55:26.362Z,70.88
2018-06-27T09:57:54.377Z,69.36
2018-06-27T10:00:27.698Z,68.40
2018-06-27T10:02:55.620Z,66.50
2018-06-27T10:05:23.588Z,66.55
2018-06-27T10:07:51.474Z,66.38
2018-06-27T10:10:19.354Z,63.88
2018-06-27T10:12:47.251Z,62.48
2018-06-27T10:15:15.152Z,61.53
2018-06-27T10:17:43.019Z,60.17
2018-06-27T10:20:10.891Z,60.47
2018-06-27T10:22:38.780Z,61.71
2018-06-27T10:25:06.760Z,59.73
2018-06-27T10:27:34.582Z,59.95
2018-06-27T10:30:02.644Z,54.60
2018-06-27T10:32:30.538Z,50.96
2018-06-27T10:34:58.391Z,50.17
2018-06-27T10:37:26.262Z,49.61
2018-06-27T10:39:54.151Z,49.31
2018-06-27T10:42:22.022Z,47.95
2018-06-27T10:44:49.911Z,47.58
2018-06-27T10:47:17.811Z,47.08
2018-06-27T10:49:45.688Z,44.97
2018-06-27T10:52:13.553Z,43.47
2018-06-27T10:54:56.921Z,40.49
2018-06-27T10:57:24.861Z,40.75
2018-06-27T10:59:53.415Z,42.23
2018-06-27T11:02:21.892Z,44.38
2018-06-27T11:04:49.750Z,46.15
2018-06-27T11:07:17.721Z,49.42
2018-06-27T11:09:45.620Z,49.35
2018-06-27T11:12:13.515Z,52.35
2018-06-27T11:14:41.372Z,56.52
2018-06-27T11:17:09.247Z,56.88
2018-06-27T11:19:37.359Z,57.77
2018-06-27T11:22:05.274Z,59.55
2018-06-27T11:24:33.934Z,60.12
2018-06-27T11:27:01.843Z,62.21
2018-06-27T11:29:29.720Z,63.97
2018-06-27T11:31:57.602Z,64.14
2018-06-27T11:34:25.471Z,63.84
2018-06-27T11:36:53.362Z,64.04
2018-06-27T11:39:21.287Z,63.64
2018-06-27T11:41:49.232Z,61.70
2018-06-27T11:44:17.151Z,58.36
2018-06-27T11:46:45.009Z,55.53
2018-06-27T11:49:12.912Z,55.75
2018-06-27T11:51:40.824Z,56.71
2018-06-27T11:54:08.765Z,55.75
2018-06-27T11:56:36.615Z,55.37
2018-06-27T11:59:04.575Z,55.83
2018-06-27T12:01:32.469Z,55.20
2018-06-27T12:04:00.394Z,55.52
2018-06-27T12:06:28.351Z,55.46
2018-06-27T12:08:56.221Z,56.35
2018-06-27T12:11:24.130Z,55.81
2018-06-27T12:13:52.013Z,56.99
2018-06-27T12:16:20.202Z,56.00
2018-06-27T12:18:48.403Z,54.92
2018-06-27T12:21:16.334Z,52.59
2018-06-27T12:23:44.235Z,53.86
2018-06-27T12:26:12.197Z,54.12
2018-06-27T12:28:40.050Z,54.36
2018-06-27T12:31:07.981Z,53.59
2018-06-27T12:33:35.991Z,54.63
2018-06-27T12:36:03.961Z,56.08
2018-06-27T12:38:31.874Z,54.54
2018-06-27T12:40:59.821Z,55.47
2018-06-27T12:43:27.726Z,56.48
2018-06-27T12:45:55.734Z,56.54
2018-06-27T12:48:23.622Z,57.48
2018-06-27T12:50:51.568Z,57.77
2018-06-27T12:53:19.432Z,56.44
2018-06-27T12:55:47.323Z,55.92
2018-06-27T12:58:15.214Z,54.78
2018-06-27T13:00:43.174Z,53.53
2018-06-27T13:03:11.019Z,53.56
2018-06-27T13:05:39.017Z,53.89
2018-06-27T13:08:06.910Z,52.67
2018-06-27T13:10:34.918Z,51.53
2018-06-27T13:13:03.345Z,51.97
2018-06-27T13:15:31.274Z,52.60
2018-06-27T13:17:59.315Z,52.17
2018-06-27T13:20:27.323Z,53.74
2018-06-27T13:22:55.335Z,55.22
2018-06-27T13:25:23.196Z,55.55
2018-06-27T13:27:51.008Z,54.40
2018-06-27T13:30:18.834Z,54.22
2018-06-27T13:32:46.917Z,53.45
2018-06-27T13:35:14.820Z,53.41
2018-06-27T13:37:42.737Z,53.70
2018-06-27T13:40:10.762Z,56.02
2018-06-27T13:42:38.603Z,54.64
2018-06-27T13:45:06.467Z,54.99
2018-06-27T13:47:34.387Z,56.88
2018-06-27T13:50:02.276Z,56.63
2018-06-27T13:52:30.219Z,57.27
2018-06-27T13:54:58.977Z,55.54
2018-06-27T13:57:28.021Z,54.01
2018-06-27T13:59:56.966Z,55.26
2018-06-27T14:02:24.882Z,54.91
2018-06-27T14:04:52.737Z,55.40
2018-06-27T14:07:20.740Z,55.96
2018-06-27T14:09:48.629Z,57.14
2018-06-27T14:12:16.523Z,57.36
2018-06-27T14:14:44.411Z,57.22
2018-06-27T14:17:12.268Z,56.56
2018-06-27T14:19:40.127Z,55.78
2018-06-27T14:22:08.739Z,56.46
2018-06-27T14:24:37.363Z,55.30
2018-06-27T14:27:05.288Z,55.53
2018-06-27T14:29:33.162Z,55.50
2018-06-27T14:32:01.023Z,56.73
2018-06-27T14:34:28.866Z,61.61
2018-06-27T14:36:56.722Z,62.08
2018-06-27T14:39:24.582Z,61.59
2018-06-27T14:41:52.466Z,61.66
2018-06-27T14:44:20.375Z,60.60
2018-06-27T14:46:48.261Z,60.38
2018-06-27T14:49:16.168Z,63.04
2018-06-27T14:51:44.072Z,62.38
2018-06-27T14:54:11.983Z,61.83
2018-06-27T14:56:39.898Z,62.49
2018-06-27T14:59:07.840Z,63.11
2018-06-27T15:01:36.159Z,63.46
2018-06-27T15:04:04.101Z,66.20
2018-06-27T15:06:32.128Z,65.20
2018-06-27T15:09:00.039Z,66.41
2018-06-27T15:11:28.430Z,68.13
2018-06-27T15:13:56.536Z,70.33
2018-06-27T15:16:24.595Z,71.54
2018-06-27T15:18:53.026Z,71.29
2018-06-27T15:23:07.609Z,72.11
2018-06-27T15:25:35.487Z,72.94
2018-06-27T15:28:03.385Z,73.94
2018-06-27T15:30:31.642Z,74.54
2018-06-27T15:32:59.621Z,75.62
2018-06-27T15:35:27.594Z,75.80
2018-06-27T15:37:55.442Z,77.91
2018-06-27T15:40:23.326Z,77.83
2018-06-27T15:42:51.206Z,78.48
2018-06-27T15:45:19.083Z,79.03
2018-06-27T15:47:47.023Z,78.65
2018-06-27T15:50:14.905Z,80.43
2018-06-27T15:52:42.782Z,80.35
2018-06-27T15:55:10.668Z,81.59
2018-06-27T15:57:38.616Z,81.41
2018-06-27T16:00:06.604Z,80.28
2018-06-27T16:02:34.566Z,80.04
2018-06-27T16:05:02.606Z,79.26
2018-06-27T16:07:30.633Z,80.46
2018-06-27T16:09:58.735Z,79.64
2018-06-27T16:12:26.884Z,79.53
2018-06-27T16:14:54.891Z,79.81
2018-06-27T16:17:23.095Z,80.11
2018-06-27T16:19:50.904Z,80.90
2018-06-27T16:22:18.818Z,81.24
2018-06-27T16:24:46.822Z,80.43
2018-06-27T16:27:14.892Z,80.15
2018-06-27T16:29:43.327Z,79.71
2018-06-27T16:32:11.254Z,80.27
2018-06-27T16:34:39.340Z,81.30
2018-06-27T16:37:07.397Z,79.67
2018-06-27T16:39:35.393Z,80.83
2018-06-27T16:42:03.366Z,81.42
2018-06-27T16:44:31.404Z,81.29
2018-06-27T16:46:59.407Z,81.70
2018-06-27T16:49:27.295Z,80.98
2018-06-27T16:51:55.343Z,81.01
2018-06-27T16:54:23.433Z,81.15
2018-06-27T16:56:51.343Z,80.76
2018-06-27T16:59:19.314Z,81.12
2018-06-27T17:01:47.319Z,81.83
2018-06-27T17:04:15.480Z,82.48
2018-06-27T17:06:43.446Z,82.96
2018-06-27T17:09:11.308Z,82.92
2018-06-27T17:11:39.739Z,83.24
2018-06-27T17:14:08.434Z,82.51
2018-06-27T17:16:36.435Z,82.75
2018-06-27T17:19:04.553Z,82.31
2018-06-27T17:21:32.663Z,82.37
2018-06-27T17:24:00.688Z,83.24
2018-06-27T17:26:28.691Z,83.41
2018-06-27T17:28:56.709Z,83.77
2018-06-27T17:31:24.816Z,83.93
2018-06-27T17:33:53.023Z,83.44
2018-06-27T17:36:22.691Z,83.52
2018-06-27T17:38:50.813Z,84.08
2018-06-27T17:41:18.974Z,83.92
2018-06-27T17:43:47.104Z,84.43
2018-06-27T17:46:15.196Z,84.12
2018-06-27T17:48:43.818Z,84.14
2018-06-27T17:51:11.951Z,84.17
2018-06-27T17:53:40.878Z,84.52
2018-06-27T17:56:08.881Z,84.13
2018-06-27T17:58:36.943Z,84.15
2018-06-27T18:01:04.902Z,84.37
2018-06-27T18:03:32.969Z,84.05
2018-06-27T18:06:01.031Z,84.37
2018-06-27T18:08:29.328Z,85.50
2018-06-27T18:10:57.295Z,85.82
2018-06-27T18:13:25.291Z,86.76
2018-06-27T18:15:53.367Z,86.30
2018-06-27T18:18:21.381Z,86.17
2018-06-27T18:20:49.339Z,85.78
2018-06-27T18:23:17.355Z,85.31
2018-06-27T18:25:45.321Z,84.56
2018-06-27T18:28:13.383Z,85.55
2018-06-27T18:30:41.339Z,85.37
2018-06-27T18:33:09.398Z,84.63
2018-06-27T18:35:37.449Z,84.84
2018-06-27T18:38:05.647Z,84.31
2018-06-27T18:40:33.590Z,85.53
2018-06-27T18:43:01.560Z,84.07
2018-06-27T18:45:29.529Z,83.85
2018-06-27T18:47:57.586Z,83.61
2018-06-27T18:50:25.562Z,83.70
2018-06-27T18:52:53.618Z,84.05
2018-06-27T18:55:21.656Z,83.71
2018-06-27T18:57:49.711Z,83.77
2018-06-27T19:00:17.739Z,83.17
2018-06-27T19:02:45.882Z,82.69
2018-06-27T19:05:13.818Z,84.06
2018-06-27T19:07:41.833Z,85.16
2018-06-27T19:10:09.853Z,85.52
2018-06-27T19:12:38.201Z,84.81
2018-06-27T19:15:06.322Z,84.91
2018-06-27T19:17:34.309Z,83.61
2018-06-27T19:20:02.285Z,83.45
2018-06-27T19:22:30.329Z,83.76
2018-06-27T19:24:58.355Z,82.53
2018-06-27T19:27:26.253Z,82.31
2018-06-27T19:29:54.193Z,82.70
2018-06-27T19:32:22.200Z,81.98
2018-06-27T19:34:50.188Z,81.08
2018-06-27T19:37:18.162Z,81.21
2018-06-27T19:39:46.140Z,81.21
2018-06-27T19:42:14.187Z,81.10
2018-06-27T19:44:42.114Z,81.40
2018-06-27T19:47:10.110Z,81.90
2018-06-27T19:49:38.098Z,81.36
2018-06-27T19:52:06.067Z,82.01
2018-06-27T19:54:34.161Z,81.81
2018-06-27T19:57:02.114Z,81.96
2018-06-27T19:59:30.011Z,81.86
2018-06-27T20:01:58.024Z,82.24
2018-06-27T20:04:26.043Z,82.00
2018-06-27T20:06:54.047Z,82.37
2018-06-27T20:09:21.874Z,81.33
2018-06-27T20:11:49.834Z,81.90
2018-06-27T20:14:17.756Z,82.55
2018-06-27T20:16:45.743Z,81.47
2018-06-27T20:19:13.839Z,81.55
2018-06-27T20:21:42.545Z,81.66
2018-06-27T20:24:10.540Z,81.65
2018-06-27T20:26:38.553Z,82.09
2018-06-27T20:29:06.871Z,81.99
2018-06-27T20:31:34.869Z,82.20
2018-06-27T20:34:02.949Z,82.12
2018-06-27T20:36:30.918Z,81.57
2018-06-27T20:38:58.846Z,81.34
2018-06-27T20:41:27.014Z,81.53
2018-06-27T20:43:54.934Z,82.35
2018-06-27T20:46:22.854Z,82.00
2018-06-27T20:48:50.807Z,81.47
2018-06-27T20:51:18.852Z,81.19
2018-06-27T20:53:46.903Z,80.43
2018-06-27T20:56:14.894Z,80.10
2018-06-27T20:58:42.820Z,79.63
2018-06-27T21:01:10.975Z,80.82
2018-06-27T21:03:38.918Z,81.02
2018-06-27T21:06:06.879Z,80.32
2018-06-27T21:08:34.836Z,80.30
2018-06-27T21:11:02.934Z,80.80
2018-06-27T21:13:30.803Z,80.60
2018-06-27T21:15:58.786Z,79.85
2018-06-27T21:18:26.782Z,80.25
2018-06-27T21:20:54.793Z,79.52
2018-06-27T21:23:22.767Z,79.90
2018-06-27T21:25:50.814Z,80.04
2018-06-27T21:28:18.735Z,80.22
2018-06-27T21:30:46.797Z,79.30
2018-06-27T21:33:14.699Z,80.10
2018-06-27T21:35:42.613Z,80.93
2018-06-27T21:38:10.496Z,81.38
2018-06-27T21:40:38.413Z,82.17
2018-06-27T21:43:06.313Z,81.71
2018-06-27T21:45:34.154Z,81.87
2018-06-27T21:48:02.053Z,81.74
2018-06-27T21:50:29.928Z,81.14
2018-06-27T21:52:57.788Z,81.57
2018-06-27T21:55:25.631Z,80.89
2018-06-27T21:57:53.476Z,80.66
2018-06-27T22:00:23.403Z,80.02
2018-06-27T22:02:51.607Z,80.43
2018-06-27T22:05:19.557Z,80.49
2018-06-27T22:07:47.576Z,79.84
2018-06-27T22:10:15.508Z,79.61
2018-06-27T22:12:43.493Z,79.85
2018-06-27T22:15:11.479Z,78.50
2018-06-27T22:17:39.462Z,79.19
2018-06-27T22:20:07.464Z,80.08
2018-06-27T22:22:35.408Z,80.59
2018-06-27T22:25:03.442Z,80.35
2018-06-27T22:27:31.395Z,80.39
2018-06-27T22:29:59.300Z,81.62
2018-06-27T22:32:27.258Z,81.17
2018-06-27T22:34:55.179Z,80.50
2018-06-27T22:37:23.070Z,79.98
2018-06-27T22:39:51.026Z,80.48
2018-06-27T22:42:19.034Z,80.09
2018-06-27T22:44:46.955Z,80.06
2018-06-27T22:47:14.900Z,80.67
2018-06-27T22:49:42.818Z,81.50
2018-06-27T22:52:10.724Z,81.79
2018-06-27T22:54:38.666Z,82.78
2018-06-27T22:57:06.604Z,82.91
2018-06-27T22:59:34.595Z,82.81
2018-06-27T23:02:02.532Z,82.83
2018-06-27T23:04:30.554Z,83.00
2018-06-27T23:06:58.482Z,81.77
2018-06-27T23:09:26.659Z,81.22
2018-06-27T23:11:54.675Z,82.11
2018-06-27T23:14:22.709Z,82.00
2018-06-27T23:16:50.686Z,81.33
2018-06-27T23:19:18.823Z,81.73
2018-06-27T23:21:46.759Z,80.83
2018-06-27T23:24:14.972Z,81.04
2018-06-27T23:26:49.424Z,81.13
2018-06-27T23:29:17.494Z,80.88
2018-06-27T23:31:45.854Z,79.71
2018-06-27T23:34:13.885Z,81.00
2018-06-27T23:36:42.168Z,81.67
2018-06-27T23:39:11.907Z,80.38
2018-06-27T23:41:40.411Z,80.86
2018-06-27T23:44:08.425Z,80.40
2018-06-27T23:46:36.448Z,81.03
2018-06-27T23:49:04.720Z,80.78
2018-06-27T23:51:32.758Z,80.92
2018-06-27T23:54:00.765Z,80.44
2018-06-27T23:56:28.728Z,80.27
2018-06-27T23:58:56.785Z,79.34
